createdAt,value
2022-09-13T00:01:04.543Z,5.97
2022-09-13T00:03:32.019Z,5.80
2022-09-13T00:05:59.715Z,6.57
2022-09-13T00:08:26.450Z,5.77
2022-09-13T00:10:53.213Z,6.10
2022-09-13T00:13:19.996Z,5.90
2022-09-13T00:15:49.591Z,5.97
2022-09-13T00:18:18.451Z,5.93
2022-09-13T00:20:45.590Z,6.30
2022-09-13T00:23:13.077Z,6.77
2022-09-13T00:25:40.031Z,6.47
2022-09-13T00:28:07.472Z,6.57
2022-09-13T00:30:34.338Z,7.07
2022-09-13T00:33:04.507Z,6.90
2022-09-13T00:35:31.771Z,6.87
2022-09-13T00:38:00.776Z,6.90
2022-09-13T00:40:27.609Z,7.07
2022-09-13T00:42:54.376Z,6.90
2022-09-13T00:45:21.233Z,7.37
2022-09-13T00:48:01.177Z,5.67
2022-09-13T00:50:27.803Z,6.73
2022-09-13T00:53:03.762Z,6.23
2022-09-13T00:55:51.240Z,6.37
2022-09-13T00:58:22.477Z,6.00
2022-09-13T01:00:50.343Z,6.67
2022-09-13T01:03:19.741Z,6.30
2022-09-13T01:05:51.145Z,6.23
2022-09-13T01:08:23.063Z,6.97
2022-09-13T01:10:56.353Z,6.40
2022-09-13T01:13:25.773Z,6.63
2022-09-13T01:15:52.896Z,6.50
2022-09-13T01:18:20.348Z,5.93
2022-09-13T01:20:55.935Z,6.43
2022-09-13T01:24:00.507Z,6.73
2022-09-13T01:26:58.872Z,6.70
2022-09-13T01:30:03.156Z,6.57
2022-09-13T01:32:54.662Z,6.03
2022-09-13T01:35:47.891Z,6.70
2022-09-13T01:38:20.533Z,6.20
2022-09-13T01:40:50.187Z,6.93
2022-09-13T01:43:31.339Z,7.20
2022-09-13T01:46:26.392Z,7.00
2022-09-13T01:49:25.555Z,6.30
2022-09-13T01:52:23.690Z,6.50
2022-09-13T01:55:05.297Z,7.17
2022-09-13T01:57:36.950Z,7.97
2022-09-13T02:00:12.169Z,7.90
2022-09-13T02:02:51.381Z,8.17
2022-09-13T02:05:46.661Z,9.63
2022-09-13T02:08:19.734Z,7.93
2022-09-13T02:11:00.335Z,7.67
2022-09-13T02:13:31.713Z,7.80
2022-09-13T02:16:06.910Z,7.67
2022-09-13T02:18:41.170Z,8.17
2022-09-13T02:21:13.390Z,7.60
2022-09-13T02:23:53.468Z,7.77
2022-09-13T02:26:23.347Z,7.77
2022-09-13T02:28:55.782Z,7.83
2022-09-13T02:31:29.119Z,8.67
2022-09-13T02:34:00.391Z,8.03
2022-09-13T02:36:31.377Z,8.10
2022-09-13T02:39:02.338Z,7.70
2022-09-13T02:41:43.907Z,8.30
2022-09-13T02:44:22.252Z,7.80
2022-09-13T02:47:22.505Z,8.33
2022-09-13T02:50:13.025Z,7.53
2022-09-13T02:52:52.577Z,7.17
2022-09-13T02:55:42.560Z,7.57
2022-09-13T02:58:35.391Z,8.27
2022-09-13T03:01:02.436Z,7.30
2022-09-13T03:03:29.264Z,7.93
2022-09-13T03:05:56.154Z,8.43
2022-09-13T03:08:24.500Z,8.13
2022-09-13T03:11:07.832Z,7.80
2022-09-13T03:13:49.785Z,7.77
2022-09-13T03:16:43.040Z,7.67
2022-09-13T03:19:17.373Z,8.30
2022-09-13T03:22:17.873Z,8.13
2022-09-13T03:24:59.700Z,8.60
2022-09-13T03:27:32.306Z,8.47
2022-09-13T03:30:08.076Z,8.30
2022-09-13T03:33:09.414Z,9.13
2022-09-13T03:35:45.459Z,9.27
2022-09-13T03:38:17.606Z,9.17
2022-09-13T03:40:49.948Z,8.40
2022-09-13T03:43:35.511Z,8.43
2022-09-13T03:46:10.154Z,8.87
2022-09-13T03:48:39.210Z,9.50
2022-09-13T03:51:07.371Z,8.83
2022-09-13T03:53:37.976Z,9.10
2022-09-13T03:56:16.230Z,9.50
2022-09-13T03:58:43.905Z,9.17
2022-09-13T04:01:10.747Z,10.20
2022-09-13T04:03:38.551Z,11.40
2022-09-13T04:06:06.178Z,10.67
2022-09-13T04:08:33.569Z,10.63
2022-09-13T04:11:01.433Z,9.70
2022-09-13T04:13:28.544Z,10.70
2022-09-13T04:15:55.264Z,11.13
2022-09-13T04:18:21.990Z,10.07
2022-09-13T04:20:56.793Z,10.27
2022-09-13T04:23:24.276Z,10.43
2022-09-13T04:25:53.716Z,10.17
2022-09-13T04:28:21.779Z,11.40
2022-09-13T04:30:49.336Z,11.70
2022-09-13T04:33:17.212Z,10.87
2022-09-13T04:35:43.911Z,10.17
2022-09-13T04:38:11.039Z,10.37
2022-09-13T04:40:38.001Z,10.07
2022-09-13T04:43:04.823Z,9.53
2022-09-13T04:45:31.561Z,9.80
2022-09-13T04:47:58.328Z,9.43
2022-09-13T04:50:25.704Z,9.57
2022-09-13T04:52:55.388Z,9.73
2022-09-13T04:55:22.475Z,9.83
2022-09-13T04:57:53.866Z,9.20
2022-09-13T05:00:20.724Z,10.07
2022-09-13T05:02:47.401Z,9.80
2022-09-13T05:05:14.841Z,9.03
2022-09-13T05:07:41.559Z,9.77
2022-09-13T05:10:09.121Z,8.67
2022-09-13T05:12:36.076Z,8.90
2022-09-13T05:15:02.933Z,8.50
2022-09-13T05:17:30.426Z,8.90
2022-09-13T05:19:57.105Z,8.93
2022-09-13T05:22:23.845Z,9.07
2022-09-13T05:24:50.655Z,8.77
2022-09-13T05:27:17.301Z,9.27
2022-09-13T05:29:43.987Z,9.40
2022-09-13T05:32:10.740Z,9.33
2022-09-13T05:34:37.655Z,12.20
2022-09-13T05:37:04.430Z,11.20
2022-09-13T05:39:48.497Z,11.97
2022-09-13T05:42:17.915Z,11.63
2022-09-13T05:44:44.702Z,12.20
2022-09-13T05:47:13.883Z,11.00
2022-09-13T05:49:55.484Z,11.03
2022-09-13T05:52:27.695Z,11.83
2022-09-13T05:54:54.427Z,14.97
2022-09-13T05:57:21.119Z,13.33
2022-09-13T05:59:48.038Z,13.33
2022-09-13T06:02:14.745Z,12.37
2022-09-13T06:04:41.471Z,12.33
2022-09-13T06:07:13.882Z,13.20
2022-09-13T06:09:40.652Z,14.40
2022-09-13T06:12:07.453Z,13.87
2022-09-13T06:14:34.124Z,13.57
2022-09-13T06:17:00.960Z,13.90
2022-09-13T06:19:27.677Z,12.93
2022-09-13T06:21:54.404Z,14.47
2022-09-13T06:24:21.101Z,15.03
2022-09-13T06:26:49.319Z,14.50
2022-09-13T06:29:16.312Z,17.17
2022-09-13T06:31:45.325Z,16.27
2022-09-13T06:34:17.400Z,17.00
2022-09-13T06:36:44.146Z,17.10
2022-09-13T06:39:10.923Z,16.33
2022-09-13T06:41:37.975Z,17.70
2022-09-13T06:44:04.902Z,18.60
2022-09-13T06:46:34.157Z,16.47
2022-09-13T06:49:03.448Z,18.17
2022-09-13T06:51:30.962Z,15.73
2022-09-13T06:53:58.331Z,14.87
2022-09-13T06:56:30.937Z,18.37
2022-09-13T06:59:00.564Z,15.13
2022-09-13T07:01:33.235Z,18.73
2022-09-13T07:04:06.049Z,16.23
2022-09-13T07:06:39.113Z,16.00
2022-09-13T07:09:08.623Z,18.87
2022-09-13T07:11:38.538Z,19.20
2022-09-13T07:14:09.052Z,17.27
2022-09-13T07:16:37.800Z,19.23
2022-09-13T07:19:06.814Z,19.77
2022-09-13T07:21:35.422Z,21.13
2022-09-13T07:24:02.468Z,20.30
2022-09-13T07:26:29.340Z,19.43
2022-09-13T07:28:58.508Z,19.40
2022-09-13T07:31:28.848Z,19.60
2022-09-13T07:34:00.627Z,18.57
2022-09-13T07:36:29.528Z,18.17
2022-09-13T07:38:57.563Z,17.47
2022-09-13T07:41:26.598Z,17.13
2022-09-13T07:43:54.064Z,16.53
2022-09-13T07:46:23.346Z,15.13
2022-09-13T07:48:54.004Z,14.20
2022-09-13T07:51:23.310Z,14.23
2022-09-13T07:53:57.038Z,12.80
2022-09-13T07:56:30.554Z,12.20
2022-09-13T07:59:00.702Z,11.13
2022-09-13T08:01:38.922Z,11.00
2022-09-13T08:04:08.165Z,9.37
2022-09-13T08:06:35.973Z,9.43
2022-09-13T08:09:03.408Z,8.20
2022-09-13T08:11:42.047Z,8.67
2022-09-13T08:14:11.224Z,7.33
2022-09-13T08:16:39.394Z,6.87
2022-09-13T08:19:07.467Z,7.30
2022-09-13T08:21:36.546Z,7.03
2022-09-13T08:24:04.749Z,7.00
2022-09-13T08:26:34.123Z,6.83
2022-09-13T08:29:03.906Z,6.30
2022-09-13T08:31:31.348Z,7.07
2022-09-13T08:33:58.769Z,5.33
2022-09-13T08:36:27.586Z,5.03
2022-09-13T08:38:59.595Z,5.70
2022-09-13T08:41:26.239Z,5.40
2022-09-13T08:44:09.075Z,4.83
2022-09-13T08:46:44.145Z,5.20
2022-09-13T08:49:32.057Z,4.77
2022-09-13T08:52:16.656Z,3.30
2022-09-13T08:54:43.848Z,3.60
2022-09-13T08:57:28.360Z,3.53
2022-09-13T09:00:20.773Z,3.50
2022-09-13T09:03:08.511Z,3.40
2022-09-13T09:05:48.923Z,3.33
2022-09-13T09:08:39.171Z,3.70
2022-09-13T09:11:21.015Z,2.90
2022-09-13T09:14:13.292Z,3.40
2022-09-13T09:16:51.320Z,3.13
2022-09-13T09:19:30.262Z,2.97
2022-09-13T09:21:59.329Z,2.80
2022-09-13T09:24:26.042Z,3.13
2022-09-13T09:26:55.689Z,2.97
2022-09-13T09:29:29.564Z,2.60
2022-09-13T09:32:16.692Z,2.53
2022-09-13T09:35:05.031Z,2.50
2022-09-13T09:37:33.393Z,2.00
2022-09-13T09:40:04.812Z,2.30
2022-09-13T09:42:40.927Z,2.00
2022-09-13T09:45:31.476Z,2.30
2022-09-13T09:48:05.409Z,2.03
2022-09-13T09:50:38.298Z,2.33
2022-09-13T09:53:26.956Z,1.90
2022-09-13T09:56:05.116Z,1.97
2022-09-13T09:58:43.460Z,1.80
2022-09-13T10:01:32.600Z,2.10
2022-09-13T10:04:17.252Z,1.90
2022-09-13T10:06:44.121Z,1.70
2022-09-13T10:09:13.867Z,1.73
2022-09-13T10:11:51.117Z,1.83
2022-09-13T10:14:45.848Z,1.60
2022-09-13T10:17:16.282Z,1.93
2022-09-13T10:19:56.207Z,1.70
2022-09-13T10:22:23.107Z,1.90
2022-09-13T10:24:50.684Z,1.60
2022-09-13T10:27:24.553Z,1.47
2022-09-13T10:29:59.593Z,1.40
2022-09-13T10:32:28.847Z,1.60
2022-09-13T10:35:00.464Z,1.60
2022-09-13T10:37:34.489Z,1.53
2022-09-13T10:40:01.211Z,2.20
2022-09-13T10:42:30.963Z,1.43
2022-09-13T10:45:06.983Z,1.70
2022-09-13T10:47:39.537Z,1.60
2022-09-13T10:50:33.589Z,1.80
2022-09-13T10:53:01.960Z,1.73
2022-09-13T10:55:34.730Z,2.50
2022-09-13T10:58:07.634Z,1.77
2022-09-13T11:01:12.224Z,1.90
2022-09-13T11:04:05.203Z,1.87
2022-09-13T11:06:47.111Z,1.87
2022-09-13T11:09:44.820Z,1.90
2022-09-13T11:12:38.509Z,1.90
2022-09-13T11:15:20.584Z,1.80
2022-09-13T11:18:12.035Z,2.23
2022-09-13T11:20:47.743Z,2.10
2022-09-13T11:23:23.276Z,2.00
2022-09-13T11:26:18.249Z,1.90
2022-09-13T11:28:45.056Z,1.70
2022-09-13T11:31:21.173Z,1.50
2022-09-13T11:33:57.181Z,1.73
2022-09-13T11:36:49.065Z,1.80
2022-09-13T11:39:38.704Z,1.63
2022-09-13T11:42:12.169Z,1.70
2022-09-13T11:45:09.429Z,2.30
2022-09-13T11:47:53.509Z,1.80
2022-09-13T11:50:33.562Z,1.53
2022-09-13T11:53:20.388Z,1.60
2022-09-13T11:55:54.266Z,1.80
2022-09-13T11:58:39.549Z,1.90
2022-09-13T12:01:10.715Z,1.65
2022-09-13T12:03:37.420Z,1.60
2022-09-13T12:06:22.226Z,4.17
2022-09-13T12:08:56.743Z,1.90
2022-09-13T12:11:28.990Z,2.00
2022-09-13T12:13:59.646Z,1.70
2022-09-13T12:16:35.412Z,1.63
2022-09-13T12:19:21.053Z,1.90
2022-09-13T12:21:49.424Z,1.60
2022-09-13T12:24:46.972Z,1.70
2022-09-13T12:27:57.474Z,1.60
2022-09-13T12:30:33.748Z,1.70
2022-09-13T12:33:00.735Z,1.90
2022-09-13T12:35:36.213Z,1.90
2022-09-13T12:38:11.775Z,1.40
2022-09-13T12:40:59.796Z,1.20
2022-09-13T12:43:41.532Z,1.43
2022-09-13T12:46:19.721Z,1.30
2022-09-13T12:49:23.447Z,1.30
2022-09-13T12:52:10.887Z,1.57
2022-09-13T12:55:01.606Z,1.50
2022-09-13T12:57:43.380Z,1.70
2022-09-13T13:00:13.010Z,1.37
2022-09-13T13:03:05.575Z,1.70
2022-09-13T13:05:36.133Z,1.30
2022-09-13T13:08:21.119Z,1.77
2022-09-13T13:11:10.905Z,1.77
2022-09-13T13:13:52.896Z,1.50
2022-09-13T13:16:34.852Z,1.30
2022-09-13T13:19:22.941Z,1.57
2022-09-13T13:21:49.703Z,1.50
2022-09-13T13:24:16.351Z,1.27
2022-09-13T13:26:50.827Z,1.80
2022-09-13T13:29:20.838Z,1.53
2022-09-13T13:32:04.109Z,1.67
2022-09-13T13:34:35.136Z,1.73
2022-09-13T13:37:08.023Z,1.70
2022-09-13T13:39:48.638Z,1.70
2022-09-13T13:42:25.871Z,1.60
2022-09-13T13:44:52.545Z,1.40
2022-09-13T13:47:19.252Z,1.60
2022-09-13T13:49:52.940Z,1.63
2022-09-13T13:52:22.485Z,1.50
2022-09-13T13:54:53.475Z,1.90
2022-09-13T13:57:57.563Z,1.17
2022-09-13T14:00:28.426Z,1.60
2022-09-13T14:03:21.916Z,1.77
2022-09-13T14:05:57.535Z,1.23
2022-09-13T14:08:36.303Z,1.60
2022-09-13T14:11:29.820Z,1.60
2022-09-13T14:14:23.189Z,1.57
2022-09-13T14:17:15.229Z,1.60
2022-09-13T14:19:48.795Z,1.50
2022-09-13T14:22:20.173Z,1.60
2022-09-13T14:24:52.288Z,1.20
2022-09-13T14:27:29.355Z,1.40
2022-09-13T14:30:04.330Z,1.13
2022-09-13T14:32:41.984Z,1.57
2022-09-13T14:35:37.184Z,1.23
2022-09-13T14:38:23.556Z,1.30
2022-09-13T14:40:53.238Z,1.10
2022-09-13T14:43:22.907Z,1.70
2022-09-13T14:45:53.263Z,1.40
2022-09-13T14:48:28.667Z,1.47
2022-09-13T14:51:00.858Z,1.17
2022-09-13T14:53:32.242Z,1.23
2022-09-13T14:56:09.181Z,1.00
2022-09-13T14:58:48.896Z,1.20
2022-09-13T15:01:26.544Z,1.10
2022-09-13T15:03:57.481Z,1.10
2022-09-13T15:06:30.415Z,1.10
2022-09-13T15:09:20.135Z,1.57
2022-09-13T15:11:53.651Z,1.07
2022-09-13T15:14:34.742Z,1.17
2022-09-13T15:17:14.035Z,1.00
2022-09-13T15:20:01.828Z,0.90
2022-09-13T15:22:33.208Z,1.10
2022-09-13T15:25:02.184Z,1.80
2022-09-13T15:27:47.334Z,1.17
2022-09-13T15:30:23.804Z,1.10
2022-09-13T15:33:03.564Z,1.20
2022-09-13T15:35:35.988Z,1.57
2022-09-13T15:38:21.208Z,2.27
2022-09-13T15:40:59.211Z,2.20
2022-09-13T15:43:25.930Z,1.50
2022-09-13T15:45:52.673Z,1.37
2022-09-13T15:48:31.247Z,1.20
2022-09-13T15:51:08.419Z,1.00
2022-09-13T15:53:37.203Z,0.90
2022-09-13T15:56:04.742Z,1.00
2022-09-13T15:58:32.594Z,0.93
2022-09-13T16:00:59.923Z,1.00
2022-09-13T16:03:26.708Z,1.27
2022-09-13T16:05:53.805Z,1.40
2022-09-13T16:08:21.055Z,1.10
2022-09-13T16:10:47.827Z,1.10
2022-09-13T16:13:14.626Z,1.20
2022-09-13T16:15:41.528Z,1.13
2022-09-13T16:18:08.529Z,1.27
2022-09-13T16:20:35.383Z,1.60
2022-09-13T16:23:02.125Z,1.20
2022-09-13T16:25:28.956Z,1.60
2022-09-13T16:27:56.543Z,2.00
2022-09-13T16:30:23.509Z,1.13
2022-09-13T16:32:50.540Z,1.30
2022-09-13T16:35:17.590Z,1.10
2022-09-13T16:37:44.800Z,1.20
2022-09-13T16:40:12.236Z,1.53
2022-09-13T16:42:39.285Z,1.20
2022-09-13T16:45:06.660Z,1.33
2022-09-13T16:47:33.346Z,1.17
2022-09-13T16:50:00.501Z,1.17
2022-09-13T16:52:28.926Z,1.47
2022-09-13T16:54:56.403Z,1.20
2022-09-13T16:57:24.106Z,1.43
2022-09-13T16:59:52.641Z,1.50
2022-09-13T17:02:20.238Z,1.10
2022-09-13T17:04:47.569Z,1.30
2022-09-13T17:07:15.221Z,1.33
2022-09-13T17:09:42.328Z,1.13
2022-09-13T17:12:11.024Z,1.27
2022-09-13T17:14:39.549Z,1.30
2022-09-13T17:17:06.937Z,1.33
2022-09-13T17:19:33.681Z,1.40
2022-09-13T17:22:02.694Z,1.60
2022-09-13T17:24:31.312Z,1.13
2022-09-13T17:26:59.311Z,1.10
2022-09-13T17:29:30.758Z,1.27
2022-09-13T17:31:58.713Z,1.17
2022-09-13T17:34:25.498Z,0.97
2022-09-13T17:36:52.439Z,1.30
2022-09-13T17:39:19.591Z,1.10
2022-09-13T17:41:48.423Z,1.40
2022-09-13T17:44:16.253Z,0.83
2022-09-13T17:46:43.122Z,1.07
2022-09-13T17:49:10.143Z,1.20
2022-09-13T17:51:36.871Z,1.23
2022-09-13T17:54:06.345Z,1.20
2022-09-13T17:56:38.785Z,1.50
2022-09-13T17:59:10.463Z,1.63
2022-09-13T18:01:39.742Z,1.73
2022-09-13T18:04:08.325Z,1.30
2022-09-13T18:06:40.742Z,1.63
2022-09-13T18:09:07.717Z,1.30
2022-09-13T18:11:34.440Z,1.13
2022-09-13T18:14:01.305Z,0.97
2022-09-13T18:16:29.462Z,1.50
2022-09-13T18:18:56.692Z,1.23
2022-09-13T18:21:25.241Z,1.30
2022-09-13T18:23:54.715Z,1.27
2022-09-13T18:26:23.516Z,1.80
2022-09-13T18:29:18.639Z,2.00
2022-09-13T18:31:45.425Z,1.70
2022-09-13T18:34:14.044Z,1.70
2022-09-13T18:36:41.339Z,1.33
2022-09-13T18:39:15.798Z,1.30
2022-09-13T18:41:42.642Z,1.50
2022-09-13T18:44:13.756Z,1.43
2022-09-13T18:46:41.335Z,1.43
2022-09-13T18:49:09.908Z,1.40
2022-09-13T18:51:39.916Z,1.50
2022-09-13T18:54:09.192Z,1.50
2022-09-13T18:56:36.882Z,1.30
2022-09-13T18:59:05.792Z,2.20
2022-09-13T19:01:35.941Z,1.87
2022-09-13T19:04:11.899Z,1.20
2022-09-13T19:06:48.824Z,1.50
2022-09-13T19:09:16.997Z,1.50
2022-09-13T19:11:48.241Z,1.30
2022-09-13T19:14:17.794Z,1.60
2022-09-13T19:16:45.381Z,1.60
2022-09-13T19:19:12.513Z,1.40
2022-09-13T19:21:40.384Z,1.17
2022-09-13T19:24:14.858Z,1.30
2022-09-13T19:26:45.616Z,1.33
2022-09-13T19:29:14.752Z,1.43
2022-09-13T19:31:45.020Z,1.80
2022-09-13T19:34:12.255Z,1.87
2022-09-13T19:36:39.992Z,1.60
2022-09-13T19:39:07.567Z,1.43
2022-09-13T19:41:36.392Z,1.40
2022-09-13T19:44:04.294Z,1.20
2022-09-13T19:46:34.828Z,1.80
2022-09-13T19:49:02.321Z,1.50
2022-09-13T19:51:31.553Z,1.80
2022-09-13T19:53:59.751Z,2.03
2022-09-13T19:56:32.566Z,2.30
2022-09-13T19:59:00.790Z,1.73
2022-09-13T20:01:33.901Z,1.57
2022-09-13T20:04:03.571Z,1.90
2022-09-13T20:06:40.670Z,1.60
2022-09-13T20:09:09.217Z,1.57
2022-09-13T20:11:41.466Z,1.47
2022-09-13T20:14:09.283Z,1.80
2022-09-13T20:16:38.137Z,1.47
2022-09-13T20:19:18.605Z,1.47
2022-09-13T20:21:51.247Z,1.40
2022-09-13T20:24:21.627Z,1.73
2022-09-13T20:26:49.960Z,2.00
2022-09-13T20:29:16.803Z,1.80
2022-09-13T20:31:43.757Z,1.60
2022-09-13T20:34:17.507Z,1.87
2022-09-13T20:36:45.423Z,1.60
2022-09-13T20:39:12.330Z,2.03
2022-09-13T20:41:39.020Z,1.60
2022-09-13T20:44:07.199Z,1.70
2022-09-13T20:46:33.981Z,1.50
2022-09-13T20:49:01.468Z,1.70
2022-09-13T20:51:32.696Z,1.70
2022-09-13T20:54:01.531Z,1.73
2022-09-13T20:56:30.461Z,1.53
2022-09-13T20:59:00.337Z,1.57
2022-09-13T21:01:29.517Z,1.77
2022-09-13T21:03:57.385Z,1.57
2022-09-13T21:06:26.864Z,1.47
2022-09-13T21:08:54.239Z,1.60
2022-09-13T21:11:23.519Z,1.73
2022-09-13T21:13:55.592Z,1.40
2022-09-13T21:16:25.137Z,2.00
2022-09-13T21:18:53.246Z,2.17
2022-09-13T21:21:23.766Z,1.80
2022-09-13T21:23:50.848Z,1.57
2022-09-13T21:26:21.743Z,2.30
2022-09-13T21:28:49.013Z,2.33
2022-09-13T21:31:22.634Z,2.30
2022-09-13T21:33:54.437Z,2.40
2022-09-13T21:36:21.157Z,1.90
2022-09-13T21:38:47.800Z,1.60
2022-09-13T21:41:16.977Z,2.43
2022-09-13T21:43:44.548Z,2.00
2022-09-13T21:46:19.822Z,2.00
2022-09-13T21:48:49.066Z,2.10
2022-09-13T21:51:17.348Z,2.03
2022-09-13T21:53:45.431Z,2.17
2022-09-13T21:56:14.824Z,2.30
2022-09-13T21:58:42.229Z,2.60
2022-09-13T22:01:13.924Z,2.30
2022-09-13T22:03:43.131Z,2.20
2022-09-13T22:06:11.812Z,2.13
2022-09-13T22:08:40.611Z,2.03
2022-09-13T22:11:16.189Z,2.60
2022-09-13T22:13:47.719Z,2.50
2022-09-13T22:16:21.559Z,2.40
2022-09-13T22:19:00.167Z,2.50
2022-09-13T22:21:29.269Z,2.30
2022-09-13T22:23:56.777Z,2.40
2022-09-13T22:26:26.061Z,2.07
2022-09-13T22:28:54.039Z,2.10
2022-09-13T22:31:26.683Z,2.43
2022-09-13T22:33:56.141Z,2.30
2022-09-13T22:36:23.743Z,2.60
2022-09-13T22:38:54.764Z,2.30
2022-09-13T22:41:27.422Z,2.77
2022-09-13T22:43:54.475Z,2.00
2022-09-13T22:46:30.472Z,2.40
2022-09-13T22:48:57.356Z,2.30
2022-09-13T22:51:25.776Z,2.30
2022-09-13T22:53:53.879Z,2.30
2022-09-13T22:56:28.201Z,2.10
2022-09-13T22:59:03.630Z,2.70
2022-09-13T23:01:31.838Z,2.73
2022-09-13T23:04:00.394Z,2.17
2022-09-13T23:06:28.707Z,2.23
2022-09-13T23:08:59.054Z,2.50
2022-09-13T23:11:31.495Z,2.40
2022-09-13T23:14:03.964Z,2.07
2022-09-13T23:16:33.942Z,2.20
2022-09-13T23:19:01.003Z,2.07
2022-09-13T23:21:30.911Z,2.60
2022-09-13T23:23:59.644Z,2.53
2022-09-13T23:26:27.199Z,2.33
2022-09-13T23:28:56.675Z,2.23
2022-09-13T23:31:25.874Z,2.20
2022-09-13T23:33:55.873Z,1.90
2022-09-13T23:36:25.876Z,2.67
2022-09-13T23:38:54.818Z,2.53
2022-09-13T23:41:22.372Z,2.70
2022-09-13T23:43:49.727Z,2.70
2022-09-13T23:46:16.714Z,2.37
2022-09-13T23:48:44.238Z,2.73
2022-09-13T23:51:17.031Z,2.30
2022-09-13T23:53:44.550Z,2.37
2022-09-13T23:56:12.017Z,2.90
2022-09-13T23:58:39.446Z,1.97
